sensor_id;sensor_type;location;lat;lon;timestamp;pressure;altitude;pressure_sealevel;temperature
69785;BMP280;14177;51.520;6.764;2022-10-20T00:01:11;101670.22;;;9.69
69785;BMP280;14177;51.520;6.764;2022-10-20T00:03:38;101671.97;;;9.67
69785;BMP280;14177;51.520;6.764;2022-10-20T00:08:40;101684.16;;;9.63
69785;BMP280;14177;51.520;6.764;2022-10-20T00:11:10;101672.91;;;9.63
69785;BMP280;14177;51.520;6.764;2022-10-20T00:13:38;101680.72;;;9.62
69785;BMP280;14177;51.520;6.764;2022-10-20T00:16:06;101669.50;;;9.60
69785;BMP280;14177;51.520;6.764;2022-10-20T00:18:34;101662.59;;;9.59
69785;BMP280;14177;51.520;6.764;2022-10-20T00:21:13;101665.19;;;9.57
69785;BMP280;14177;51.520;6.764;2022-10-20T00:23:40;101660.88;;;9.56
69785;BMP280;14177;51.520;6.764;2022-10-20T00:26:17;101646.22;;;9.54
69785;BMP280;14177;51.520;6.764;2022-10-20T00:28:45;101634.13;;;9.51
69785;BMP280;14177;51.520;6.764;2022-10-20T00:31:12;101641.97;;;9.50
69785;BMP280;14177;51.520;6.764;2022-10-20T00:33:40;101639.38;;;9.48
69785;BMP280;14177;51.520;6.764;2022-10-20T00:36:11;101628.19;;;9.46
69785;BMP280;14177;51.520;6.764;2022-10-20T00:38:39;101612.66;;;9.43
69785;BMP280;14177;51.520;6.764;2022-10-20T00:41:06;101616.09;;;9.44
69785;BMP280;14177;51.520;6.764;2022-10-20T00:43:55;101604.91;;;9.40
69785;BMP280;14177;51.520;6.764;2022-10-20T00:46:38;101601.44;;;9.40
69785;BMP280;14177;51.520;6.764;2022-10-20T00:49:14;101592.00;;;9.37
69785;BMP280;14177;51.520;6.764;2022-10-20T00:51:42;101577.31;;;9.36
69785;BMP280;14177;51.520;6.764;2022-10-20T00:54:15;101579.03;;;9.37
69785;BMP280;14177;51.520;6.764;2022-10-20T00:56:46;101574.75;;;9.33
69785;BMP280;14177;51.520;6.764;2022-10-20T00:59:19;101579.97;;;9.30
69785;BMP280;14177;51.520;6.764;2022-10-20T01:01:47;101585.16;;;9.30
69785;BMP280;14177;51.520;6.764;2022-10-20T01:04:16;101604.19;;;9.29
69785;BMP280;14177;51.520;6.764;2022-10-20T01:06:43;101603.31;;;9.29
69785;BMP280;14177;51.520;6.764;2022-10-20T01:09:10;101595.59;;;9.27
69785;BMP280;14177;51.520;6.764;2022-10-20T01:12:10;101592.16;;;9.25
69785;BMP280;14177;51.520;6.764;2022-10-20T01:15:24;101590.47;;;9.21
69785;BMP280;14177;51.520;6.764;2022-10-20T01:27:30;101552.53;;;9.14
69785;BMP280;14177;51.520;6.764;2022-10-20T01:38:20;101538.81;;;9.08
69785;BMP280;14177;51.520;6.764;2022-10-20T01:43:40;101518.94;;;9.07
69785;BMP280;14177;51.520;6.764;2022-10-20T01:46:10;101527.56;;;9.07
69785;BMP280;14177;51.520;6.764;2022-10-20T01:48:38;101523.25;;;9.06
69785;BMP280;14177;51.520;6.764;2022-10-20T01:51:08;101512.88;;;9.06
69785;BMP280;14177;51.520;6.764;2022-10-20T01:53:36;101516.38;;;9.05
69785;BMP280;14177;51.520;6.764;2022-10-20T01:56:05;101514.66;;;9.04
69785;BMP280;14177;51.520;6.764;2022-10-20T02:05:17;101508.63;;;9.04
69785;BMP280;14177;51.520;6.764;2022-10-20T02:07:53;101511.19;;;9.05
69785;BMP280;14177;51.520;6.764;2022-10-20T02:10:33;101507.78;;;9.02
69785;BMP280;14177;51.520;6.764;2022-10-20T02:13:05;101496.53;;;9.01
69785;BMP280;14177;51.520;6.764;2022-10-20T02:15:40;101485.31;;;9.02
69785;BMP280;14177;51.520;6.764;2022-10-20T02:18:14;101473.22;;;9.01
69785;BMP280;14177;51.520;6.764;2022-10-20T02:20:47;101465.41;;;9.04
69785;BMP280;14177;51.520;6.764;2022-10-20T02:23:17;101461.97;;;9.04
69785;BMP280;14177;51.520;6.764;2022-10-20T02:25:48;101455.91;;;9.03
69785;BMP280;14177;51.520;6.764;2022-10-20T02:28:18;101450.72;;;9.03
69785;BMP280;14177;51.520;6.764;2022-10-20T02:30:46;101452.44;;;9.06
69785;BMP280;14177;51.520;6.764;2022-10-20T02:33:22;101453.28;;;9.06
69785;BMP280;14177;51.520;6.764;2022-10-20T02:35:56;101443.78;;;9.05
69785;BMP280;14177;51.520;6.764;2022-10-20T02:38:25;101442.06;;;9.06
69785;BMP280;14177;51.520;6.764;2022-10-20T02:40:54;101432.53;;;9.06
69785;BMP280;14177;51.520;6.764;2022-10-20T02:43:23;101435.97;;;9.10
69785;BMP280;14177;51.520;6.764;2022-10-20T02:45:52;101439.44;;;9.07
69785;BMP280;14177;51.520;6.764;2022-10-20T02:48:19;101433.41;;;9.07
69785;BMP280;14177;51.520;6.764;2022-10-20T02:50:45;101433.41;;;9.05
69785;BMP280;14177;51.520;6.764;2022-10-20T02:53:12;101434.34;;;9.03
69785;BMP280;14177;51.520;6.764;2022-10-20T02:55:41;101432.59;;;9.05
69785;BMP280;14177;51.520;6.764;2022-10-20T02:58:09;101426.53;;;9.04
69785;BMP280;14177;51.520;6.764;2022-10-20T03:00:35;101422.22;;;9.03
69785;BMP280;14177;51.520;6.764;2022-10-20T03:03:02;101425.69;;;9.02
69785;BMP280;14177;51.520;6.764;2022-10-20T03:05:30;101417.06;;;9.02
69785;BMP280;14177;51.520;6.764;2022-10-20T03:07:57;101420.50;;;9.04
69785;BMP280;14177;51.520;6.764;2022-10-20T03:10:23;101422.22;;;9.03
69785;BMP280;14177;51.520;6.764;2022-10-20T03:12:50;101425.69;;;9.02
69785;BMP280;14177;51.520;6.764;2022-10-20T03:15:18;101414.44;;;9.03
69785;BMP280;14177;51.520;6.764;2022-10-20T03:17:47;101417.03;;;9.03
69785;BMP280;14177;51.520;6.764;2022-10-20T03:20:14;101408.44;;;9.01
69785;BMP280;14177;51.520;6.764;2022-10-20T03:22:41;101410.13;;;9.02
69785;BMP280;14177;51.520;6.764;2022-10-20T03:25:08;101408.44;;;9.01
69785;BMP280;14177;51.520;6.764;2022-10-20T03:27:35;101405.84;;;9.01
69785;BMP280;14177;51.520;6.764;2022-10-20T03:30:03;101400.66;;;9.01
69785;BMP280;14177;51.520;6.764;2022-10-20T03:32:31;101394.63;;;9.01
69785;BMP280;14177;51.520;6.764;2022-10-20T03:35:00;101388.53;;;9.03
69785;BMP280;14177;51.520;6.764;2022-10-20T03:37:27;101392.00;;;9.02
69785;BMP280;14177;51.520;6.764;2022-10-20T03:39:54;101402.38;;;9.02
69785;BMP280;14177;51.520;6.764;2022-10-20T03:42:21;101391.16;;;9.02
69785;BMP280;14177;51.520;6.764;2022-10-20T03:44:48;101382.50;;;9.01
69785;BMP280;14177;51.520;6.764;2022-10-20T03:47:15;101390.25;;;9.04
69785;BMP280;14177;51.520;6.764;2022-10-20T03:49:42;101383.34;;;9.03
69785;BMP280;14177;51.520;6.764;2022-10-20T03:52:10;101381.59;;;9.05
69785;BMP280;14177;51.520;6.764;2022-10-20T03:54:40;101380.75;;;9.05
69785;BMP280;14177;51.520;6.764;2022-10-20T03:57:09;101381.59;;;9.05
69785;BMP280;14177;51.520;6.764;2022-10-20T03:59:36;101383.34;;;9.05
69785;BMP280;14177;51.520;6.764;2022-10-20T04:02:03;101377.28;;;9.04
69785;BMP280;14177;51.520;6.764;2022-10-20T04:04:30;101371.25;;;9.02
69785;BMP280;14177;51.520;6.764;2022-10-20T04:06:57;101362.59;;;9.03
69785;BMP280;14177;51.520;6.764;2022-10-20T04:09:24;101360.06;;;9.02
69785;BMP280;14177;51.520;6.764;2022-10-20T04:11:51;101362.66;;;9.00
69785;BMP280;14177;51.520;6.764;2022-10-20T04:14:17;101364.34;;;9.03
69785;BMP280;14177;51.520;6.764;2022-10-20T04:16:44;101354.81;;;9.05
69785;BMP280;14177;51.520;6.764;2022-10-20T04:19:11;101346.19;;;9.04
69785;BMP280;14177;51.520;6.764;2022-10-20T04:21:38;101350.47;;;9.05
69785;BMP280;14177;51.520;6.764;2022-10-20T04:24:05;101352.22;;;9.05
69785;BMP280;14177;51.520;6.764;2022-10-20T04:26:35;101347.88;;;9.05
69785;BMP280;14177;51.520;6.764;2022-10-20T04:29:05;101351.34;;;9.06
69785;BMP280;14177;51.520;6.764;2022-10-20T04:31:36;101339.28;;;9.05
69785;BMP280;14177;51.520;6.764;2022-10-20T04:34:09;101329.78;;;9.02
69785;BMP280;14177;51.520;6.764;2022-10-20T04:36:40;101327.16;;;9.05
69785;BMP280;14177;51.520;6.764;2022-10-20T04:39:09;101324.56;;;9.05
69785;BMP280;14177;51.520;6.764;2022-10-20T04:41:36;101331.47;;;9.06
69785;BMP280;14177;51.520;6.764;2022-10-20T04:44:03;101326.28;;;9.06
69785;BMP280;14177;51.520;6.764;2022-10-20T04:46:30;101321.09;;;9.06
69785;BMP280;14177;51.520;6.764;2022-10-20T04:48:57;101318.50;;;9.06
69785;BMP280;14177;51.520;6.764;2022-10-20T04:51:25;101309.88;;;9.06
69785;BMP280;14177;51.520;6.764;2022-10-20T04:53:54;101311.59;;;9.05
69785;BMP280;14177;51.520;6.764;2022-10-20T04:56:21;101306.38;;;9.08
69785;BMP280;14177;51.520;6.764;2022-10-20T04:58:51;101290.88;;;9.07
69785;BMP280;14177;51.520;6.764;2022-10-20T05:01:21;101289.94;;;9.09
69785;BMP280;14177;51.520;6.764;2022-10-20T05:03:48;101289.03;;;9.12
69785;BMP280;14177;51.520;6.764;2022-10-20T05:06:23;101278.66;;;9.12
69785;BMP280;14177;51.520;6.764;2022-10-20T05:08:54;101269.22;;;9.09
69785;BMP280;14177;51.520;6.764;2022-10-20T05:11:24;101271.75;;;9.11
69785;BMP280;14177;51.520;6.764;2022-10-20T05:13:51;101263.94;;;9.14
69785;BMP280;14177;51.520;6.764;2022-10-20T05:16:19;101251.84;;;9.14
69785;BMP280;14177;51.520;6.764;2022-10-20T05:18:47;101246.66;;;9.14
69785;BMP280;14177;51.520;6.764;2022-10-20T05:21:19;101246.59;;;9.17
69785;BMP280;14177;51.520;6.764;2022-10-20T05:23:46;101237.91;;;9.20
69785;BMP280;14177;51.520;6.764;2022-10-20T05:26:17;101244.78;;;9.22
69785;BMP280;14177;51.520;6.764;2022-10-20T05:28:47;101260.28;;;9.25
69785;BMP280;14177;51.520;6.764;2022-10-20T05:31:17;101248.19;;;9.24
69785;BMP280;14177;51.520;6.764;2022-10-20T05:33:49;101243.06;;;9.21
69785;BMP280;14177;51.520;6.764;2022-10-20T05:36:21;101237.88;;;9.21
69785;BMP280;14177;51.520;6.764;2022-10-20T05:38:51;101234.41;;;9.22
69785;BMP280;14177;51.520;6.764;2022-10-20T05:41:27;101232.66;;;9.24
69785;BMP280;14177;51.520;6.764;2022-10-20T05:44:10;101237.84;;;9.24
69785;BMP280;14177;51.520;6.764;2022-10-20T05:46:53;101222.34;;;9.21
69785;BMP280;14177;51.520;6.764;2022-10-20T05:49:27;101225.75;;;9.22
69785;BMP280;14177;51.520;6.764;2022-10-20T05:52:00;101231.81;;;9.22
69785;BMP280;14177;51.520;6.764;2022-10-20T05:54:27;101218.03;;;9.20
69785;BMP280;14177;51.520;6.764;2022-10-20T05:56:54;101223.13;;;9.25
69785;BMP280;14177;51.520;6.764;2022-10-20T05:59:21;101205.84;;;9.24
69785;BMP280;14177;51.520;6.764;2022-10-20T06:01:48;101212.78;;;9.23
69785;BMP280;14177;51.520;6.764;2022-10-20T06:04:22;101218.81;;;9.25
69785;BMP280;14177;51.520;6.764;2022-10-20T06:06:51;101214.47;;;9.26
69785;BMP280;14177;51.520;6.764;2022-10-20T06:09:22;101218.75;;;9.28
69785;BMP280;14177;51.520;6.764;2022-10-20T06:11:51;101201.47;;;9.27
69785;BMP280;14177;51.520;6.764;2022-10-20T06:14:19;101213.56;;;9.28
69785;BMP280;14177;51.520;6.764;2022-10-20T06:16:52;101210.97;;;9.28
69785;BMP280;14177;51.520;6.764;2022-10-20T06:19:20;101204.03;;;9.29
69785;BMP280;14177;51.520;6.764;2022-10-20T06:21:47;101211.78;;;9.30
69785;BMP280;14177;51.520;6.764;2022-10-20T06:24:16;101207.44;;;9.32
69785;BMP280;14177;51.520;6.764;2022-10-20T06:26:44;101204.84;;;9.32
69785;BMP280;14177;51.520;6.764;2022-10-20T06:29:15;101204.78;;;9.35
69785;BMP280;14177;51.520;6.764;2022-10-20T06:31:45;101206.56;;;9.33
69785;BMP280;14177;51.520;6.764;2022-10-20T06:34:19;101211.69;;;9.35
69785;BMP280;14177;51.520;6.764;2022-10-20T06:36:48;101215.09;;;9.38
69785;BMP280;14177;51.520;6.764;2022-10-20T06:39:18;101207.34;;;9.37
69785;BMP280;14177;51.520;6.764;2022-10-20T06:41:52;101215.88;;;9.43
69785;BMP280;14177;51.520;6.764;2022-10-20T06:44:22;101218.34;;;9.48
69785;BMP280;14177;51.520;6.764;2022-10-20T06:46:50;101223.53;;;9.48
69785;BMP280;14177;51.520;6.764;2022-10-20T06:49:19;101232.09;;;9.51
69785;BMP280;14177;51.520;6.764;2022-10-20T06:51:46;101222.59;;;9.52
69785;BMP280;14177;51.520;6.764;2022-10-20T06:54:13;101232.84;;;9.58
69785;BMP280;14177;51.520;6.764;2022-10-20T06:56:40;101226.81;;;9.57
69785;BMP280;14177;51.520;6.764;2022-10-20T06:59:07;101236.22;;;9.61
69785;BMP280;14177;51.520;6.764;2022-10-20T07:01:37;101221.50;;;9.63
69785;BMP280;14177;51.520;6.764;2022-10-20T07:04:09;101217.94;;;9.67
69785;BMP280;14177;51.520;6.764;2022-10-20T07:06:39;101221.28;;;9.73
69785;BMP280;14177;51.520;6.764;2022-10-20T07:09:11;101211.69;;;9.77
69785;BMP280;14177;51.520;6.764;2022-10-20T07:11:40;101215.94;;;9.81
69785;BMP280;14177;51.520;6.764;2022-10-20T07:14:11;101222.72;;;9.86
69785;BMP280;14177;51.520;6.764;2022-10-20T07:16:41;101224.34;;;9.92
69785;BMP280;14177;51.520;6.764;2022-10-20T07:19:09;101226.81;;;9.98
69785;BMP280;14177;51.520;6.764;2022-10-20T07:21:36;101238.00;;;10.03
69785;BMP280;14177;51.520;6.764;2022-10-20T07:24:06;101228.31;;;10.09
69785;BMP280;14177;51.520;6.764;2022-10-20T07:26:37;101227.34;;;10.15
69785;BMP280;14177;51.520;6.764;2022-10-20T07:29:09;101222.78;;;10.24
69785;BMP280;14177;51.520;6.764;2022-10-20T07:31:45;101211.31;;;10.33
69785;BMP280;14177;51.520;6.764;2022-10-20T07:34:15;101223.22;;;10.43
69785;BMP280;14177;51.520;6.764;2022-10-20T07:36:53;101223.88;;;10.51
69785;BMP280;14177;51.520;6.764;2022-10-20T07:39:20;101223.66;;;10.60
69785;BMP280;14177;51.520;6.764;2022-10-20T07:41:48;101228.66;;;10.69
69785;BMP280;14177;51.520;6.764;2022-10-20T07:44:16;101219.81;;;10.76
69785;BMP280;14177;51.520;6.764;2022-10-20T07:46:43;101212.63;;;10.85
69785;BMP280;14177;51.520;6.764;2022-10-20T07:49:12;101207.97;;;10.97
69785;BMP280;14177;51.520;6.764;2022-10-20T07:51:59;101205.94;;;11.08
69785;BMP280;14177;51.520;6.764;2022-10-20T07:54:26;101201.28;;;11.21
69785;BMP280;14177;51.520;6.764;2022-10-20T07:56:53;101207.00;;;11.33
69785;BMP280;14177;51.520;6.764;2022-10-20T07:59:20;101186.75;;;11.44
69785;BMP280;14177;51.520;6.764;2022-10-20T08:01:47;101176.94;;;11.54
69785;BMP280;14177;51.520;6.764;2022-10-20T08:04:14;101185.38;;;11.63
69785;BMP280;14177;51.520;6.764;2022-10-20T08:06:41;101191.19;;;11.71
69785;BMP280;14177;51.520;6.764;2022-10-20T08:09:09;101190.97;;;11.79
69785;BMP280;14177;51.520;6.764;2022-10-20T08:11:36;101194.13;;;11.90
69785;BMP280;14177;51.520;6.764;2022-10-20T08:14:07;101184.47;;;11.93
69785;BMP280;14177;51.520;6.764;2022-10-20T08:16:37;101162.53;;;12.00
69785;BMP280;14177;51.520;6.764;2022-10-20T08:19:11;101172.59;;;12.12
69785;BMP280;14177;51.520;6.764;2022-10-20T08:21:48;101182.53;;;12.27
69785;BMP280;14177;51.520;6.764;2022-10-20T08:24:17;101175.91;;;12.43
69785;BMP280;14177;51.520;6.764;2022-10-20T08:26:50;101185.75;;;12.61
69785;BMP280;14177;51.520;6.764;2022-10-20T08:29:17;101173.03;;;12.76
69785;BMP280;14177;51.520;6.764;2022-10-20T08:31:47;101177.53;;;12.99
69785;BMP280;14177;51.520;6.764;2022-10-20T08:34:15;101164.31;;;13.28
69785;BMP280;14177;51.520;6.764;2022-10-20T08:36:42;101160.63;;;13.56
69785;BMP280;14177;51.520;6.764;2022-10-20T08:39:11;101166.59;;;13.82
69785;BMP280;14177;51.520;6.764;2022-10-20T08:41:44;101156.78;;;14.10
69785;BMP280;14177;51.520;6.764;2022-10-20T08:44:34;101163.59;;;14.36
69785;BMP280;14177;51.520;6.764;2022-10-20T08:47:06;101154.19;;;14.53
69785;BMP280;14177;51.520;6.764;2022-10-20T08:49:39;101158.38;;;14.77
69785;BMP280;14177;51.520;6.764;2022-10-20T08:52:12;101141.56;;;15.02
69785;BMP280;14177;51.520;6.764;2022-10-20T08:54:53;101141.41;;;15.27
69785;BMP280;14177;51.520;6.764;2022-10-20T08:57:42;101135.69;;;15.56
69785;BMP280;14177;51.520;6.764;2022-10-20T09:00:20;101135.50;;;15.79
69785;BMP280;14177;51.520;6.764;2022-10-20T09:02:54;101131.50;;;16.07
69785;BMP280;14177;51.520;6.764;2022-10-20T09:05:30;101123.16;;;16.34
69785;BMP280;14177;51.520;6.764;2022-10-20T09:07:59;101108.22;;;16.53
69785;BMP280;14177;51.520;6.764;2022-10-20T09:10:46;101112.88;;;16.65
69785;BMP280;14177;51.520;6.764;2022-10-20T09:13:26;101111.22;;;16.63
69785;BMP280;14177;51.520;6.764;2022-10-20T09:16:12;101115.63;;;16.62
69785;BMP280;14177;51.520;6.764;2022-10-20T09:19:01;101107.94;;;16.59
69785;BMP280;14177;51.520;6.764;2022-10-20T09:21:29;101108.75;;;16.60
69785;BMP280;14177;51.520;6.764;2022-10-20T09:24:04;101105.28;;;16.76
69785;BMP280;14177;51.520;6.764;2022-10-20T09:26:44;101104.97;;;16.82
69785;BMP280;14177;51.520;6.764;2022-10-20T09:29:37;101120.03;;;16.79
69785;BMP280;14177;51.520;6.764;2022-10-20T09:32:40;101123.97;;;16.70
69785;BMP280;14177;51.520;6.764;2022-10-20T09:35:32;101116.88;;;16.72
69785;BMP280;14177;51.520;6.764;2022-10-20T09:38:25;101111.31;;;16.61
69785;BMP280;14177;51.520;6.764;2022-10-20T09:41:11;101106.59;;;16.51
69785;BMP280;14177;51.520;6.764;2022-10-20T09:43:56;101107.59;;;16.48
69785;BMP280;14177;51.520;6.764;2022-10-20T09:46:38;101105.28;;;16.42
69785;BMP280;14177;51.520;6.764;2022-10-20T09:52:26;101089.84;;;16.36
69785;BMP280;14177;51.520;6.764;2022-10-20T09:55:15;101087.38;;;16.33
69785;BMP280;14177;51.520;6.764;2022-10-20T09:57:48;101084.88;;;16.30
69785;BMP280;14177;51.520;6.764;2022-10-20T10:00:33;101086.56;;;16.31
69785;BMP280;14177;51.520;6.764;2022-10-20T10:03:16;101089.34;;;16.28
69785;BMP280;14177;51.520;6.764;2022-10-20T10:05:58;101093.81;;;16.26
69785;BMP280;14177;51.520;6.764;2022-10-20T10:08:40;101088.56;;;16.26
69785;BMP280;14177;51.520;6.764;2022-10-20T10:11:17;101080.09;;;16.21
69785;BMP280;14177;51.520;6.764;2022-10-20T10:13:49;101088.97;;;16.19
69785;BMP280;14177;51.520;6.764;2022-10-20T10:16:21;101103.44;;;16.09
69785;BMP280;14177;51.520;6.764;2022-10-20T10:19:00;101119.16;;;16.09
69785;BMP280;14177;51.520;6.764;2022-10-20T10:21:55;101131.53;;;16.05
69785;BMP280;14177;51.520;6.764;2022-10-20T10:24:47;101136.00;;;16.03
69785;BMP280;14177;51.520;6.764;2022-10-20T10:27:28;101135.72;;;16.09
69785;BMP280;14177;51.520;6.764;2022-10-20T10:32:54;101129.56;;;16.10
69785;BMP280;14177;51.520;6.764;2022-10-20T10:35:41;101118.69;;;16.01
69785;BMP280;14177;51.520;6.764;2022-10-20T10:38:13;101107.19;;;16.03
69785;BMP280;14177;51.520;6.764;2022-10-20T10:47:02;101124.56;;;16.06
69785;BMP280;14177;51.520;6.764;2022-10-20T10:49:56;101120.91;;;16.08
69785;BMP280;14177;51.520;6.764;2022-10-20T10:52:38;101116.69;;;16.06
69785;BMP280;14177;51.520;6.764;2022-10-20T10:55:28;101126.00;;;16.11
69785;BMP280;14177;51.520;6.764;2022-10-20T11:07:11;101103.25;;;15.95
69785;BMP280;14177;51.520;6.764;2022-10-20T11:12:52;101098.88;;;15.95
69785;BMP280;14177;51.520;6.764;2022-10-20T11:16:00;101096.09;;;15.98
69785;BMP280;14177;51.520;6.764;2022-10-20T11:22:35;101063.88;;;15.96
69785;BMP280;14177;51.520;6.764;2022-10-20T11:25:29;101072.19;;;15.87
69785;BMP280;14177;51.520;6.764;2022-10-20T11:28:00;101059.09;;;15.87
69785;BMP280;14177;51.520;6.764;2022-10-20T11:30:32;101065.31;;;15.85
69785;BMP280;14177;51.520;6.764;2022-10-20T11:33:17;101054.13;;;15.82
69785;BMP280;14177;51.520;6.764;2022-10-20T11:36:17;101059.38;;;15.82
69785;BMP280;14177;51.520;6.764;2022-10-20T11:38:54;101065.75;;;15.76
69785;BMP280;14177;51.520;6.764;2022-10-20T11:41:42;101063.25;;;15.73
69785;BMP280;14177;51.520;6.764;2022-10-20T11:44:32;101069.41;;;15.72
69785;BMP280;14177;51.520;6.764;2022-10-20T11:47:07;101071.25;;;15.70
69785;BMP280;14177;51.520;6.764;2022-10-20T11:49:38;101077.38;;;15.71
69785;BMP280;14177;51.520;6.764;2022-10-20T11:52:48;101075.81;;;15.67
69785;BMP280;14177;51.520;6.764;2022-10-20T11:56:02;101071.00;;;15.58
69785;BMP280;14177;51.520;6.764;2022-10-20T11:59:02;101074.69;;;15.54
69785;BMP280;14177;51.520;6.764;2022-10-20T12:08:04;101078.88;;;15.39
69785;BMP280;14177;51.520;6.764;2022-10-20T12:11:40;101094.91;;;15.32
69785;BMP280;14177;51.520;6.764;2022-10-20T12:14:24;101086.31;;;15.30
69785;BMP280;14177;51.520;6.764;2022-10-20T12:24:38;101085.66;;;15.05
69785;BMP280;14177;51.520;6.764;2022-10-20T12:34:57;101063.56;;;14.92
69785;BMP280;14177;51.520;6.764;2022-10-20T12:37:26;101066.25;;;14.90
69785;BMP280;14177;51.520;6.764;2022-10-20T12:39:59;101050.75;;;14.86
69785;BMP280;14177;51.520;6.764;2022-10-20T12:42:31;101030.63;;;14.88
69785;BMP280;14177;51.520;6.764;2022-10-20T12:45:24;101020.16;;;14.88
69785;BMP280;14177;51.520;6.764;2022-10-20T12:48:01;101022.56;;;14.92
69785;BMP280;14177;51.520;6.764;2022-10-20T12:50:43;101016.34;;;14.95
69785;BMP280;14177;51.520;6.764;2022-10-20T12:53:25;101003.13;;;14.98
69785;BMP280;14177;51.520;6.764;2022-10-20T12:56:08;101017.00;;;15.00
69785;BMP280;14177;51.520;6.764;2022-10-20T12:59:08;101021.94;;;15.06
69785;BMP280;14177;51.520;6.764;2022-10-20T13:10:37;101017.09;;;15.35
69785;BMP280;14177;51.520;6.764;2022-10-20T13:20:45;100998.84;;;15.34
69785;BMP280;14177;51.520;6.764;2022-10-20T13:23:17;100996.31;;;15.32
69785;BMP280;14177;51.520;6.764;2022-10-20T13:26:14;100996.06;;;15.37
69785;BMP280;14177;51.520;6.764;2022-10-20T13:28:48;101008.88;;;15.43
69785;BMP280;14177;51.520;6.764;2022-10-20T13:45:51;100992.66;;;16.22
69785;BMP280;14177;51.520;6.764;2022-10-20T13:48:53;100973.53;;;16.39
69785;BMP280;14177;51.520;6.764;2022-10-20T13:51:31;100978.19;;;16.49
69785;BMP280;14177;51.520;6.764;2022-10-20T13:54:02;100969.09;;;16.56
69785;BMP280;14177;51.520;6.764;2022-10-20T13:56:45;100965.84;;;16.84
69785;BMP280;14177;51.520;6.764;2022-10-20T14:01:47;100967.31;;;17.51
69785;BMP280;14177;51.520;6.764;2022-10-20T14:04:29;100970.41;;;17.88
69785;BMP280;14177;51.520;6.764;2022-10-20T14:07:12;100962.00;;;18.27
69785;BMP280;14177;51.520;6.764;2022-10-20T14:09:40;100973.63;;;18.52
69785;BMP280;14177;51.520;6.764;2022-10-20T14:12:25;100954.44;;;18.64
69785;BMP280;14177;51.520;6.764;2022-10-20T14:14:55;100957.06;;;18.78
69785;BMP280;14177;51.520;6.764;2022-10-20T14:17:28;100960.00;;;18.87
69785;BMP280;14177;51.520;6.764;2022-10-20T14:20:30;100962.13;;;18.67
69785;BMP280;14177;51.520;6.764;2022-10-20T14:22:59;100953.78;;;18.46
69785;BMP280;14177;51.520;6.764;2022-10-20T14:25:29;100944.09;;;18.61
69785;BMP280;14177;51.520;6.764;2022-10-20T14:28:00;100944.59;;;18.81
69785;BMP280;14177;51.520;6.764;2022-10-20T14:30:33;100942.63;;;19.11
69785;BMP280;14177;51.520;6.764;2022-10-20T14:33:13;100931.09;;;19.28
69785;BMP280;14177;51.520;6.764;2022-10-20T14:35:54;100940.88;;;19.26
69785;BMP280;14177;51.520;6.764;2022-10-20T14:38:34;100945.84;;;19.30
69785;BMP280;14177;51.520;6.764;2022-10-20T14:41:07;100939.22;;;19.37
69785;BMP280;14177;51.520;6.764;2022-10-20T14:43:44;100935.75;;;19.37
69785;BMP280;14177;51.520;6.764;2022-10-20T14:46:24;100927.00;;;19.36
69785;BMP280;14177;51.520;6.764;2022-10-20T14:48:53;100933.50;;;19.31
69785;BMP280;14177;51.520;6.764;2022-10-20T14:51:35;100943.34;;;19.15
69785;BMP280;14177;51.520;6.764;2022-10-20T14:54:30;100947.06;;;19.11
69785;BMP280;14177;51.520;6.764;2022-10-20T14:59:53;100936.44;;;19.12
69785;BMP280;14177;51.520;6.764;2022-10-20T15:02:36;100934.50;;;19.16
69785;BMP280;14177;51.520;6.764;2022-10-20T15:05:32;100934.31;;;19.19
69785;BMP280;14177;51.520;6.764;2022-10-20T15:08:20;100923.47;;;19.23
69785;BMP280;14177;51.520;6.764;2022-10-20T15:10:49;100926.22;;;19.22
69785;BMP280;14177;51.520;6.764;2022-10-20T15:13:21;100920.94;;;19.22
69785;BMP280;14177;51.520;6.764;2022-10-20T15:15:56;100911.63;;;19.16
69785;BMP280;14177;51.520;6.764;2022-10-20T15:18:24;100913.25;;;19.05
69785;BMP280;14177;51.520;6.764;2022-10-20T15:20:54;100917.00;;;19.01
69785;BMP280;14177;51.520;6.764;2022-10-20T15:23:27;100919.72;;;18.99
69785;BMP280;14177;51.520;6.764;2022-10-20T15:26:20;100911.44;;;19.05
69785;BMP280;14177;51.520;6.764;2022-10-20T15:28:50;100916.44;;;19.24
69785;BMP280;14177;51.520;6.764;2022-10-20T15:31:24;100910.31;;;19.23
69785;BMP280;14177;51.520;6.764;2022-10-20T15:33:54;100914.53;;;19.26
69785;BMP280;14177;51.520;6.764;2022-10-20T15:36:26;100912.75;;;19.26
69785;BMP280;14177;51.520;6.764;2022-10-20T15:39:08;100909.56;;;19.21
69785;BMP280;14177;51.520;6.764;2022-10-20T15:42:01;100911.91;;;19.12
69785;BMP280;14177;51.520;6.764;2022-10-20T15:44:36;100929.50;;;18.97
69785;BMP280;14177;51.520;6.764;2022-10-20T15:55:41;100883.28;;;18.10
69785;BMP280;14177;51.520;6.764;2022-10-20T15:58:09;100887.00;;;17.92
69785;BMP280;14177;51.520;6.764;2022-10-20T16:00:36;100884.31;;;17.78
69785;BMP280;14177;51.520;6.764;2022-10-20T16:03:04;100879.59;;;17.69
69785;BMP280;14177;51.520;6.764;2022-10-20T16:05:32;100878.78;;;17.53
69785;BMP280;14177;51.520;6.764;2022-10-20T16:07:59;100877.47;;;17.46
69785;BMP280;14177;51.520;6.764;2022-10-20T16:10:27;100875.97;;;17.42
69785;BMP280;14177;51.520;6.764;2022-10-20T16:12:56;100885.28;;;17.32
69785;BMP280;14177;51.520;6.764;2022-10-20T16:19:49;100884.94;;;17.07
69785;BMP280;14177;51.520;6.764;2022-10-20T16:22:16;100886.19;;;17.00
69785;BMP280;14177;51.520;6.764;2022-10-20T16:24:45;100880.28;;;16.97
69785;BMP280;14177;51.520;6.764;2022-10-20T16:27:13;100879.88;;;16.89
69785;BMP280;14177;51.520;6.764;2022-10-20T16:29:40;100886.53;;;16.79
69785;BMP280;14177;51.520;6.764;2022-10-20T16:32:13;100890.59;;;16.69
69785;BMP280;14177;51.520;6.764;2022-10-20T16:35:06;100880.53;;;16.61
69785;BMP280;14177;51.520;6.764;2022-10-20T16:37:34;100871.28;;;16.54
69785;BMP280;14177;51.520;6.764;2022-10-20T16:40:01;100878.72;;;16.46
69785;BMP280;14177;51.520;6.764;2022-10-20T16:42:28;100879.97;;;16.39
69785;BMP280;14177;51.520;6.764;2022-10-20T16:45:24;100868.97;;;16.33
69785;BMP280;14177;51.520;6.764;2022-10-20T16:48:13;100868.41;;;16.26
69785;BMP280;14177;51.520;6.764;2022-10-20T16:51:10;100863.56;;;16.19